Time;durP1;ratioP1;P1;durP2;ratioP2;P2;SDS_P1;SDS_P2;PMS_P1;PMS_P2;Temp;Humidity;BMP_temperature;BMP_pressure;BME280_temperature;BME280_humidity;BME280_pressure;Samples;Min_cycle;Max_cycle;Signal;HPM_P1;HPM_P2
2022/07/17 00:01:13;;;;;;;3.65;1.90;;;;;;;19.16;52.20;100276.75;1758628;80;21014;-76
2022/07/17 00:03:40;;;;;;;3.85;1.80;;;;;;;19.14;52.44;100284.65;1758994;81;21411;-76
2022/07/17 00:06:08;;;;;;;3.27;2.20;;;;;;;19.11;52.54;100285.84;1759046;79;21036;-76
2022/07/17 00:08:35;;;;;;;6.03;2.15;;;;;;;19.09;52.83;100286.50;1758390;79;21493;-77
2022/07/17 00:11:01;;;;;;;3.55;2.10;;;;;;;19.09;53.19;100284.34;1722838;81;21991;-75
2022/07/17 00:13:28;;;;;;;5.30;2.20;;;;;;;19.06;53.64;100280.18;1756554;81;20959;-76
2022/07/17 00:15:55;;;;;;;5.37;2.00;;;;;;;19.05;53.92;100278.52;1724194;81;21070;-77
2022/07/17 00:18:21;;;;;;;4.00;2.12;;;;;;;19.03;54.13;100279.21;1758520;81;20992;-77
2022/07/17 00:20:48;;;;;;;3.22;1.90;;;;;;;19.02;54.57;100274.87;1764433;78;20953;-76
2022/07/17 00:23:14;;;;;;;3.58;2.10;;;;;;;19.03;54.95;100282.39;1759562;79;21900;-77
2022/07/17 00:25:41;;;;;;;3.75;2.10;;;;;;;19.00;55.13;100286.23;1762426;79;20984;-75
2022/07/17 00:28:07;;;;;;;3.50;1.95;;;;;;;18.99;55.29;100283.23;1758761;80;20947;-75
2022/07/17 00:30:34;;;;;;;3.67;2.10;;;;;;;19.00;55.58;100276.04;1759423;80;20958;-74
2022/07/17 00:33:01;;;;;;;3.35;1.95;;;;;;;19.00;55.70;100273.36;1746192;81;21058;-76
2022/07/17 00:35:28;;;;;;;3.75;1.92;;;;;;;19.00;55.81;100257.30;1764517;79;22350;-75
2022/07/17 00:37:54;;;;;;;4.05;1.85;;;;;;;19.00;55.87;100255.96;1757821;79;20932;-75
2022/07/17 00:40:22;;;;;;;3.50;1.85;;;;;;;19.00;56.03;100251.95;1759140;80;21072;-75
2022/07/17 00:42:49;;;;;;;2.87;1.90;;;;;;;19.00;56.18;100252.78;1758994;81;21566;-75
2022/07/17 00:45:15;;;;;;;3.30;1.72;;;;;;;19.01;56.27;100258.96;1762709;79;21003;-76
2022/07/17 00:47:56;;;;;;;4.62;1.80;;;;;;;19.01;56.40;100255.81;1762466;80;21788;-76
2022/07/17 00:50:26;;;;;;;3.17;1.90;;;;;;;19.01;56.51;100257.15;1757826;79;21005;-76
2022/07/17 00:52:52;;;;;;;4.30;1.95;;;;;;;19.03;56.63;100258.30;1758443;79;21521;-76
2022/07/17 00:55:20;;;;;;;5.40;2.10;;;;;;;19.01;56.79;100254.47;1757892;80;21057;-75
2022/07/17 00:57:48;;;;;;;3.85;1.90;;;;;;;18.97;56.97;100257.16;1759360;80;21058;-75
2022/07/17 01:00:16;;;;;;;4.58;1.98;;;;;;;18.95;57.06;100251.16;1754033;80;21797;-76
2022/07/17 01:02:47;;;;;;;2.50;1.80;;;;;;;18.97;57.22;100254.48;1741369;81;20975;-76
2022/07/17 01:05:15;;;;;;;2.00;1.67;;;;;;;18.98;57.31;100252.13;1756527;80;21032;-75
2022/07/17 01:07:42;;;;;;;4.45;2.02;;;;;;;19.00;57.43;100243.92;1767186;79;20991;-76
2022/07/17 01:10:09;;;;;;;4.58;2.00;;;;;;;18.99;57.59;100243.59;1759350;80;21439;-75
2022/07/17 01:12:37;;;;;;;3.95;1.80;;;;;;;18.99;57.71;100243.59;1744620;81;22681;-76
2022/07/17 01:15:05;;;;;;;2.77;1.70;;;;;;;18.99;57.84;100244.94;1761474;79;20987;-76
2022/07/17 01:17:32;;;;;;;3.67;1.87;;;;;;;19.01;57.87;100257.63;1759851;80;21425;-75
2022/07/17 01:19:59;;;;;;;3.95;1.72;;;;;;;19.01;58.02;100254.95;1755406;80;21030;-76
2022/07/17 01:22:25;;;;;;;2.80;1.80;;;;;;;19.00;58.08;100253.28;1723489;81;21083;-75
2022/07/17 01:24:51;;;;;;;3.67;1.60;;;;;;;18.98;58.13;100258.83;1758370;81;21806;-76
2022/07/17 01:27:18;;;;;;;2.45;1.62;;;;;;;18.98;58.18;100257.48;1759719;79;21397;-76
2022/07/17 01:29:45;;;;;;;5.60;1.98;;;;;;;18.99;58.26;100261.83;1747727;81;20980;-75
2022/07/17 01:32:12;;;;;;;4.28;2.12;;;;;;;18.98;58.34;100272.20;1758087;79;20971;-75
2022/07/17 01:34:39;;;;;;;2.72;1.90;;;;;;;18.96;58.45;100286.79;1758674;81;21477;-75
2022/07/17 01:37:06;;;;;;;3.30;2.00;;;;;;;18.91;58.58;100295.84;1752273;80;21895;-76
2022/07/17 01:39:55;;;;;;;4.05;2.00;;;;;;;18.89;58.70;100290.67;1755478;81;20963;-75
2022/07/17 01:42:21;;;;;;;3.77;2.15;;;;;;;18.86;58.80;100297.22;1751391;81;20951;-76
2022/07/17 01:44:48;;;;;;;2.50;1.75;;;;;;;18.80;59.00;100290.39;1757964;80;21434;-76
2022/07/17 01:47:15;;;;;;;6.08;2.08;;;;;;;18.77;59.24;100292.92;1759847;80;20946;-76
2022/07/17 01:49:47;;;;;;;4.60;1.87;;;;;;;18.72;59.13;100286.42;1755534;80;21908;-76
2022/07/17 01:52:14;;;;;;;2.75;1.70;;;;;;;18.67;59.37;100295.00;1746908;81;21464;-76
2022/07/17 01:54:41;;;;;;;4.45;1.60;;;;;;;18.61;59.55;100299.67;1754943;81;20956;-75
2022/07/17 01:57:10;;;;;;;2.80;1.80;;;;;;;18.54;59.80;100303.57;1760882;80;20983;-75
2022/07/17 01:59:36;;;;;;;4.67;2.05;;;;;;;18.51;59.90;100311.09;1756962;81;21369;-75
2022/07/17 02:02:04;;;;;;;3.00;1.70;;;;;;;18.48;60.12;100320.30;1752903;81;21796;-74
2022/07/17 02:04:33;;;;;;;2.27;1.72;;;;;;;18.48;60.28;100325.66;1759158;79;21440;-75
2022/07/17 02:07:00;;;;;;;2.40;1.70;;;;;;;18.46;60.80;100328.18;1759737;79;21021;-74
2022/07/17 02:09:27;;;;;;;3.90;1.87;;;;;;;18.41;61.10;100326.52;1758639;80;21070;-74
2022/07/17 02:11:53;;;;;;;3.35;2.12;;;;;;;18.36;61.62;100327.55;1759212;81;21053;-75
2022/07/17 02:14:20;;;;;;;5.08;1.98;;;;;;;18.29;62.59;100339.44;1758900;79;22581;-74
2022/07/17 02:16:47;;;;;;;4.85;1.90;;;;;;;18.14;63.58;100343.81;1762545;79;20946;-75
2022/07/17 02:19:15;;;;;;;3.12;1.95;;;;;;;18.03;64.29;100343.68;1757186;80;20926;-75
2022/07/17 02:21:42;;;;;;;3.87;1.92;;;;;;;17.91;65.07;100330.35;1765757;79;21488;-74
2022/07/17 02:24:08;;;;;;;3.65;2.17;;;;;;;17.79;65.92;100330.38;1747393;81;21082;-75
2022/07/17 02:26:35;;;;;;;3.55;2.00;;;;;;;17.69;66.67;100327.86;1748436;80;21731;-75
2022/07/17 02:29:01;;;;;;;3.12;2.00;;;;;;;17.63;67.20;100331.19;1761620;81;20990;-75
2022/07/17 02:31:28;;;;;;;3.00;2.00;;;;;;;17.59;67.66;100322.70;1761668;80;20983;-75
2022/07/17 02:33:56;;;;;;;3.62;2.10;;;;;;;17.56;68.12;100316.33;1760909;81;20956;-75
2022/07/17 02:36:22;;;;;;;2.52;2.17;;;;;;;17.52;68.64;100315.52;1759835;80;20995;-75
2022/07/17 02:38:49;;;;;;;2.98;2.22;;;;;;;17.46;69.37;100311.67;1759803;81;22420;-75
2022/07/17 02:41:18;;;;;;;3.30;1.85;;;;;;;17.36;69.86;100304.33;1759314;81;20942;-76
2022/07/17 02:43:44;;;;;;;3.30;2.40;;;;;;;17.33;70.22;100316.69;1743507;82;21023;-75
2022/07/17 02:46:13;;;;;;;3.87;2.30;;;;;;;17.33;70.58;100312.69;1737189;79;20997;-75
2022/07/17 02:48:41;;;;;;;4.03;2.10;;;;;;;17.30;70.84;100310.36;1732870;82;21023;-76
2022/07/17 02:51:09;;;;;;;3.37;1.90;;;;;;;17.27;71.23;100318.17;1740054;82;21819;-76
2022/07/17 02:53:35;;;;;;;3.33;2.40;;;;;;;17.17;71.89;100330.34;1719153;81;20957;-75
2022/07/17 02:56:03;;;;;;;3.80;2.20;;;;;;;17.04;72.06;100335.34;1758173;79;21056;-73
2022/07/17 02:58:30;;;;;;;5.25;2.35;;;;;;;16.95;72.64;100336.33;1760824;80;20955;-73
2022/07/17 03:00:56;;;;;;;5.00;2.83;;;;;;;16.87;73.09;100346.48;1757937;81;20943;-73
2022/07/17 03:03:23;;;;;;;5.30;2.22;;;;;;;16.81;73.50;100354.31;1755435;81;21826;-73
2022/07/17 03:05:50;;;;;;;3.72;2.50;;;;;;;16.81;73.86;100355.15;1759981;80;21333;-74
2022/07/17 03:08:17;;;;;;;3.55;2.30;;;;;;;16.77;74.10;100365.79;1756070;80;21005;-73
2022/07/17 03:10:43;;;;;;;3.33;2.40;;;;;;;16.77;74.28;100362.29;1759104;80;21747;-73
2022/07/17 03:13:11;;;;;;;4.75;2.50;;;;;;;16.77;74.36;100352.95;1761371;81;20996;-72
2022/07/17 03:15:38;;;;;;;7.83;2.42;;;;;;;16.77;74.42;100351.12;1759379;79;21764;-72
2022/07/17 03:18:04;;;;;;;6.03;2.52;;;;;;;16.76;74.47;100345.45;1761682;80;20958;-73
2022/07/17 03:20:31;;;;;;;4.75;2.67;;;;;;;16.74;74.64;100345.28;1753114;80;20983;-73
2022/07/17 03:22:58;;;;;;;6.05;2.50;;;;;;;16.73;74.76;100352.95;1745712;81;20952;-73
2022/07/17 03:25:25;;;;;;;3.85;2.60;;;;;;;16.67;75.03;100352.22;1753688;80;20996;-72
2022/07/17 03:27:52;;;;;;;7.12;2.55;;;;;;;16.57;75.29;100363.86;1775530;80;22455;-74
2022/07/17 03:30:19;;;;;;;6.28;2.67;;;;;;;16.51;75.40;100359.19;1755588;80;20991;-72
2022/07/17 03:32:46;;;;;;;3.08;2.30;;;;;;;16.50;75.56;100334.86;1753489;80;21071;-72
2022/07/17 03:35:12;;;;;;;4.92;2.40;;;;;;;16.53;75.71;100335.02;1752131;80;21039;-72
2022/07/17 03:37:44;;;;;;;5.10;2.60;;;;;;;16.53;75.82;100353.69;1763946;80;20972;-72
2022/07/17 03:40:11;;;;;;;11.12;2.37;;;;;;;16.51;75.89;100357.85;1754678;81;21913;-72
2022/07/17 03:42:37;;;;;;;6.50;2.37;;;;;;;16.45;76.04;100350.48;1751205;80;20999;-72
2022/07/17 03:45:06;;;;;;;3.55;2.35;;;;;;;16.43;76.14;100364.48;1752943;81;21077;-73
2022/07/17 03:47:33;;;;;;;3.10;2.20;;;;;;;16.43;76.32;100376.97;1754033;80;20988;-72
2022/07/17 03:49:59;;;;;;;3.70;2.22;;;;;;;16.38;76.35;100372.10;1752314;81;21030;-72
2022/07/17 03:52:26;;;;;;;3.95;2.30;;;;;;;16.29;76.46;100371.22;1752446;80;21758;-72
2022/07/17 03:54:52;;;;;;;8.70;2.60;;;;;;;16.22;76.70;100368.87;1750211;80;21471;-72
2022/07/17 03:57:19;;;;;;;4.45;2.75;;;;;;;16.15;76.91;100370.98;1751202;80;21415;-72
2022/07/17 03:59:46;;;;;;;4.03;2.22;;;;;;;16.07;77.00;100371.77;1752313;81;21054;-73
2022/07/17 04:02:13;;;;;;;4.60;2.50;;;;;;;16.09;77.28;100391.59;1753530;81;21430;-73
2022/07/17 04:04:39;;;;;;;4.20;2.12;;;;;;;16.10;77.30;100403.92;1757969;80;21957;-73
2022/07/17 04:07:05;;;;;;;3.60;2.27;;;;;;;16.11;77.26;100397.59;1755938;80;20943;-73
2022/07/17 04:09:33;;;;;;;3.65;2.40;;;;;;;16.13;77.34;100379.64;1752094;80;21023;-73
2022/07/17 04:11:59;;;;;;;4.15;2.20;;;;;;;16.14;77.44;100386.64;1726757;81;20947;-73
2022/07/17 04:14:26;;;;;;;6.53;2.00;;;;;;;16.15;77.51;100396.30;1751298;80;20976;-73
2022/07/17 04:16:52;;;;;;;4.92;2.45;;;;;;;16.16;77.52;100386.81;1745427;81;21883;-72
2022/07/17 04:19:19;;;;;;;3.58;2.20;;;;;;;16.14;77.55;100371.98;1746800;80;21048;-73
2022/07/17 04:21:45;;;;;;;3.92;2.40;;;;;;;16.17;77.64;100375.16;1758013;79;20956;-73
2022/07/17 04:24:12;;;;;;;4.22;2.42;;;;;;;16.22;77.64;100380.03;1756913;81;21439;-72
2022/07/17 04:26:38;;;;;;;4.40;2.40;;;;;;;16.26;77.62;100380.04;1752574;80;20959;-73
2022/07/17 04:29:06;;;;;;;2.42;1.98;;;;;;;16.29;77.56;100375.72;1755741;80;20991;-73
2022/07/17 04:31:33;;;;;;;3.52;2.35;;;;;;;16.34;77.47;100366.77;1749703;80;21574;-74
2022/07/17 04:34:00;;;;;;;2.35;1.95;;;;;;;16.37;77.48;100374.93;1753405;80;21015;-74
2022/07/17 04:36:26;;;;;;;3.58;2.27;;;;;;;16.39;77.54;100373.77;1757793;80;20936;-71
2022/07/17 04:38:53;;;;;;;6.83;2.33;;;;;;;16.42;77.51;100372.64;1756838;80;21003;-71
2022/07/17 04:41:20;;;;;;;4.80;2.62;;;;;;;16.46;77.45;100372.14;1751800;80;21800;-71
2022/07/17 04:43:46;;;;;;;4.55;2.60;;;;;;;16.48;77.35;100367.48;1747981;80;21076;-71
2022/07/17 04:46:13;;;;;;;5.20;2.40;;;;;;;16.48;77.32;100366.15;1738937;82;21049;-74
2022/07/17 04:48:39;;;;;;;4.28;2.50;;;;;;;16.50;77.40;100366.85;1755246;80;21014;-74
2022/07/17 04:51:06;;;;;;;5.60;2.65;;;;;;;16.55;77.53;100359.69;1750418;80;21100;-74
2022/07/17 04:53:33;;;;;;;4.03;2.17;;;;;;;16.60;77.56;100356.89;1750238;80;21930;-75
2022/07/17 04:56:00;;;;;;;3.80;2.25;;;;;;;16.64;77.63;100351.22;1732574;80;21046;-75
2022/07/17 04:58:26;;;;;;;4.10;2.20;;;;;;;16.69;77.71;100347.59;1720606;82;20968;-75
2022/07/17 05:00:53;;;;;;;2.58;1.82;;;;;;;16.73;77.77;100344.95;1751698;80;21028;-74
2022/07/17 05:03:19;;;;;;;3.00;1.90;;;;;;;16.80;77.79;100336.64;1749520;80;21069;-75
2022/07/17 05:05:46;;;;;;;7.80;2.10;;;;;;;16.84;77.71;100321.97;1756181;81;21812;-74
2022/07/17 05:08:14;;;;;;;3.58;1.87;;;;;;;16.88;77.64;100312.13;1755659;80;20964;-73
2022/07/17 05:10:41;;;;;;;2.90;1.90;;;;;;;16.90;77.56;100309.33;1752202;80;21037;-76
2022/07/17 05:13:07;;;;;;;2.65;1.90;;;;;;;16.91;77.50;100308.82;1721964;81;20959;-76
2022/07/17 05:15:34;;;;;;;3.12;1.80;;;;;;;16.91;77.51;100310.98;1722332;82;20991;-75
2022/07/17 05:18:00;;;;;;;2.90;1.82;;;;;;;16.94;77.55;100289.81;1753328;80;21944;-75
2022/07/17 05:20:27;;;;;;;2.87;1.87;;;;;;;16.94;77.36;100264.46;1757323;80;21339;-74
2022/07/17 05:22:53;;;;;;;3.85;1.80;;;;;;;16.95;77.35;100247.45;1758139;80;20998;-75
2022/07/17 05:25:20;;;;;;;2.50;1.80;;;;;;;16.96;77.33;100245.95;1758816;81;21035;-75
2022/07/17 05:27:47;;;;;;;2.62;1.72;;;;;;;16.96;77.37;100261.95;1758897;81;21058;-75
2022/07/17 05:30:14;;;;;;;2.40;1.60;;;;;;;16.97;77.42;100260.12;1759713;79;22295;-75
2022/07/17 05:32:40;;;;;;;1.92;1.70;;;;;;;16.95;77.45;100276.30;1758794;79;21007;-73
2022/07/17 05:35:08;;;;;;;2.35;1.65;;;;;;;16.97;77.49;100279.62;1723434;81;20991;-74
2022/07/17 05:37:34;;;;;;;17.80;15.90;;;;;;;16.99;77.51;100271.48;1770586;80;20979;-75
2022/07/17 05:40:01;;;;;;;16.52;14.85;;;;;;;17.00;77.57;100279.31;1758071;80;21011;-73
2022/07/17 05:42:28;;;;;;;101.40;90.65;;;;;;;17.01;77.61;100292.16;1758801;80;21787;-74
2022/07/17 05:44:54;;;;;;;10.75;9.65;;;;;;;17.05;77.63;100289.48;1743742;81;22088;-72
2022/07/17 05:47:22;;;;;;;3.77;3.37;;;;;;;17.11;77.48;100291.50;1758254;80;21015;-73
2022/07/17 05:49:49;;;;;;;3.12;2.47;;;;;;;17.14;77.33;100307.17;1757805;79;20943;-73
2022/07/17 05:52:15;;;;;;;3.50;1.90;;;;;;;17.16;77.30;100310.50;1758842;80;21437;-73
2022/07/17 05:54:42;;;;;;;2.42;1.70;;;;;;;17.21;77.41;100322.03;1758809;80;21928;-73
2022/07/17 05:57:08;;;;;;;3.15;1.40;;;;;;;17.22;77.19;100335.20;1758620;80;20976;-73
2022/07/17 05:59:35;;;;;;;3.12;1.50;;;;;;;17.25;77.12;100342.04;1757358;79;21097;-73
2022/07/17 06:02:01;;;;;;;2.40;1.55;;;;;;;17.26;77.05;100357.88;1768840;79;20987;-73
2022/07/17 06:04:28;;;;;;;2.60;1.60;;;;;;;17.27;77.04;100369.39;1757640;79;20966;-72
2022/07/17 06:06:57;;;;;;;2.92;1.60;;;;;;;17.24;76.86;100373.73;1775579;79;21751;-72
2022/07/17 06:09:24;;;;;;;2.15;1.60;;;;;;;17.21;76.89;100380.25;1759817;79;21648;-74
2022/07/17 06:11:50;;;;;;;3.87;1.77;;;;;;;17.21;77.01;100383.42;1761546;79;21094;-74
2022/07/17 06:14:17;;;;;;;2.72;1.62;;;;;;;17.21;77.05;100385.59;1754581;79;20983;-74
2022/07/17 06:16:44;;;;;;;2.22;1.60;;;;;;;17.23;77.23;100384.92;1758422;80;21054;-74
2022/07/17 06:19:11;;;;;;;3.87;1.65;;;;;;;17.27;77.36;100382.24;1759348;79;21820;-75
2022/07/17 06:21:39;;;;;;;2.35;1.95;;;;;;;17.31;77.39;100384.94;1756855;79;20988;-74
2022/07/17 06:24:06;;;;;;;4.37;2.30;;;;;;;17.32;77.39;100381.77;1760295;80;20982;-77
2022/07/17 06:26:33;;;;;;;4.03;2.98;;;;;;;17.34;77.38;100381.09;1761237;80;21030;-77
2022/07/17 06:28:59;;;;;;;8.10;4.62;;;;;;;17.37;77.58;100374.94;1764184;80;20963;-76
2022/07/17 06:31:26;;;;;;;8.08;4.80;;;;;;;17.42;77.45;100382.44;1762831;79;22477;-77
2022/07/17 06:33:53;;;;;;;7.45;4.40;;;;;;;17.45;77.21;100383.43;1747254;80;21380;-72
2022/07/17 06:36:20;;;;;;;7.15;2.50;;;;;;;17.45;77.14;100384.77;1757849;80;20931;-76
2022/07/17 06:38:46;;;;;;;2.75;1.85;;;;;;;17.47;76.88;100388.13;1725602;81;20987;-74
2022/07/17 06:41:14;;;;;;;3.25;1.52;;;;;;;17.51;76.67;100389.45;1756113;80;21464;-75
2022/07/17 06:43:40;;;;;;;2.87;1.90;;;;;;;17.58;76.72;100384.30;1743614;82;21883;-75
2022/07/17 06:46:07;;;;;;;4.12;2.08;;;;;;;17.62;76.45;100385.62;1745401;81;20953;-75
2022/07/17 06:48:33;;;;;;;4.90;3.10;;;;;;;17.64;76.13;100388.45;1760557;80;21158;-70
2022/07/17 06:51:02;;;;;;;5.62;3.70;;;;;;;17.67;75.88;100385.47;1758892;80;20987;-73
2022/07/17 06:53:30;;;;;;;5.70;4.45;;;;;;;17.74;75.88;100381.62;1761137;79;21087;-73
2022/07/17 06:55:57;;;;;;;5.87;4.22;;;;;;;17.80;75.63;100374.80;1762360;81;21954;-73
2022/07/17 06:58:23;;;;;;;4.78;3.47;;;;;;;17.81;75.43;100377.30;1761719;81;20996;-72
2022/07/17 07:00:50;;;;;;;4.53;3.10;;;;;;;17.83;75.23;100377.12;1754677;81;20987;-72
2022/07/17 07:03:16;;;;;;;5.83;4.40;;;;;;;17.83;75.17;100380.63;1739277;82;20976;-72
2022/07/17 07:05:43;;;;;;;11.28;8.40;;;;;;;17.83;75.06;100373.95;1752177;80;21539;-74
2022/07/17 07:08:10;;;;;;;18.32;14.85;;;;;;;17.86;74.98;100374.12;1735284;81;21959;-76
2022/07/17 07:10:37;;;;;;;34.35;26.60;;;;;;;17.89;75.14;100379.13;1737999;81;21023;-77
2022/07/17 07:13:03;;;;;;;53.20;33.08;;;;;;;17.93;75.33;100371.09;1771348;80;21085;-75
2022/07/17 07:15:30;;;;;;;66.47;35.45;;;;;;;18.02;75.33;100370.08;1719924;82;21075;-77
2022/07/17 07:17:57;;;;;;;59.35;32.03;;;;;;;18.13;75.20;100363.03;1718201;83;21023;-79
2022/07/17 07:20:24;;;;;;;31.93;15.88;;;;;;;18.38;76.04;100367.81;1716776;83;21875;-78
2022/07/17 07:22:50;;;;;;;9.15;5.75;;;;;;;18.63;75.85;100374.42;1734828;81;21067;-79
2022/07/17 07:25:17;;;;;;;9.75;5.25;;;;;;;18.76;74.45;100372.87;1736265;81;20972;-79
2022/07/17 07:27:45;;;;;;;9.55;5.53;;;;;;;18.87;73.92;100380.51;1700380;81;21421;-79
2022/07/17 07:30:12;;;;;;;10.45;5.15;;;;;;;18.92;72.69;100381.84;1752689;80;21076;-79
2022/07/17 07:32:39;;;;;;;4.28;3.42;;;;;;;18.87;72.05;100379.17;1752613;80;21812;-83
2022/07/17 07:35:07;;;;;;;4.83;3.10;;;;;;;18.84;71.59;100374.69;1736232;82;21320;-78
2022/07/17 07:37:34;;;;;;;4.12;3.02;;;;;;;18.85;71.35;100370.48;1784749;80;21429;-74
2022/07/17 07:40:02;;;;;;;6.15;2.77;;;;;;;18.92;71.16;100368.45;1745504;80;21020;-74
2022/07/17 07:42:29;;;;;;;5.08;2.60;;;;;;;18.97;71.64;100365.56;1783634;78;21383;-75
2022/07/17 07:44:56;;;;;;;5.20;2.90;;;;;;;19.09;71.37;100360.63;1787497;80;21808;-76
2022/07/17 07:47:22;;;;;;;3.67;2.80;;;;;;;19.20;70.84;100369.59;1787652;80;20916;-75
2022/07/17 07:49:49;;;;;;;3.85;2.83;;;;;;;19.30;70.32;100361.33;1748267;81;20961;-74
2022/07/17 07:52:15;;;;;;;5.10;2.80;;;;;;;19.34;69.67;100363.99;1789020;80;20968;-73
2022/07/17 07:54:42;;;;;;;3.15;2.70;;;;;;;19.37;69.19;100363.11;1748246;82;21012;-72
2022/07/17 07:57:09;;;;;;;2.90;2.60;;;;;;;19.49;69.00;100360.84;1728943;82;21989;-72
2022/07/17 07:59:36;;;;;;;4.10;2.70;;;;;;;19.64;68.94;100357.74;1754758;81;20941;-74
2022/07/17 08:02:03;;;;;;;4.05;2.98;;;;;;;19.75;68.67;100356.47;1754974;81;21494;-73
2022/07/17 08:04:30;;;;;;;3.70;2.45;;;;;;;19.83;68.25;100354.23;1754745;81;21020;-72
2022/07/17 08:06:56;;;;;;;4.28;2.95;;;;;;;19.87;68.01;100359.53;1754266;80;21412;-73
2022/07/17 08:09:23;;;;;;;4.45;2.52;;;;;;;19.88;67.38;100354.02;1729758;81;22239;-72
2022/07/17 08:11:50;;;;;;;4.22;3.08;;;;;;;19.92;67.36;100366.03;1699634;83;21039;-73
2022/07/17 08:14:17;;;;;;;4.67;3.27;;;;;;;19.95;67.14;100358.95;1754747;81;20948;-73
2022/07/17 08:16:43;;;;;;;4.67;3.27;;;;;;;19.94;66.69;100367.18;1754635;81;20999;-73
2022/07/17 08:19:11;;;;;;;4.70;3.50;;;;;;;19.90;66.84;100368.06;1754942;81;20924;-74
2022/07/17 08:21:39;;;;;;;4.47;4.00;;;;;;;19.88;66.45;100367.90;1748255;81;21584;-73
2022/07/17 08:24:06;;;;;;;5.95;4.37;;;;;;;19.90;66.75;100369.91;1739657;81;20988;-74
2022/07/17 08:26:32;;;;;;;5.15;4.65;;;;;;;19.88;66.23;100362.53;1737703;81;21019;-73
2022/07/17 08:28:58;;;;;;;7.28;5.75;;;;;;;19.93;66.56;100365.01;1745659;81;21411;-73
2022/07/17 08:31:26;;;;;;;7.50;6.80;;;;;;;19.98;66.42;100362.63;1748149;80;20947;-73
2022/07/17 08:33:52;;;;;;;10.20;8.08;;;;;;;20.06;66.76;100344.77;1746119;82;21911;-73
2022/07/17 08:36:20;;;;;;;8.73;7.62;;;;;;;20.16;66.65;100348.01;1746070;81;21049;-73
2022/07/17 08:38:47;;;;;;;8.73;7.65;;;;;;;20.29;66.65;100341.00;1747506;80;20998;-73
2022/07/17 08:41:17;;;;;;;8.85;7.90;;;;;;;20.50;66.30;100339.44;1739477;81;21067;-74
2022/07/17 08:43:44;;;;;;;8.55;7.67;;;;;;;20.66;65.63;100332.52;1736787;80;21046;-73
2022/07/17 08:46:11;;;;;;;11.22;8.13;;;;;;;20.80;65.18;100334.33;1743628;81;21695;-73
2022/07/17 08:48:41;;;;;;;8.38;7.50;;;;;;;20.92;64.97;100330.63;1744406;81;21003;-73
2022/07/17 08:51:09;;;;;;;8.05;7.25;;;;;;;21.01;64.22;100328.66;1769004;80;21027;-73
2022/07/17 08:53:35;;;;;;;8.00;7.05;;;;;;;21.03;64.24;100326.09;1780607;80;20989;-72
2022/07/17 08:56:03;;;;;;;7.90;7.20;;;;;;;21.10;63.62;100321.64;1780577;80;21035;-72
2022/07/17 08:58:30;;;;;;;7.67;6.83;;;;;;;21.17;63.32;100314.16;1769287;80;21933;-72
2022/07/17 09:00:57;;;;;;;7.22;6.55;;;;;;;21.23;63.59;100317.41;1736474;80;21457;-73
2022/07/17 09:03:24;;;;;;;6.70;6.00;;;;;;;21.29;63.53;100312.65;1723166;83;21039;-72
2022/07/17 09:05:51;;;;;;;6.50;5.72;;;;;;;21.36;63.71;100302.29;1750559;80;21132;-72
2022/07/17 09:08:21;;;;;;;8.10;6.08;;;;;;;21.48;62.67;100311.99;1754442;81;21017;-73
2022/07/17 09:10:54;;;;;;;7.35;5.80;;;;;;;21.50;62.36;100313.97;1749252;80;20997;-71
2022/07/17 09:13:29;;;;;;;6.30;5.33;;;;;;;21.63;62.79;100306.03;1743464;82;21020;-72
2022/07/17 09:16:01;;;;;;;6.45;5.78;;;;;;;21.79;61.76;100313.46;1743226;82;21004;-72
2022/07/17 09:18:28;;;;;;;5.22;4.72;;;;;;;21.74;61.21;100321.30;1741648;81;21016;-72
2022/07/17 09:20:56;;;;;;;5.12;4.33;;;;;;;21.69;61.73;100320.52;1752925;80;21063;-71
2022/07/17 09:23:26;;;;;;;7.55;4.20;;;;;;;21.73;60.79;100320.98;1758461;80;21033;-73
2022/07/17 09:25:55;;;;;;;4.85;3.08;;;;;;;21.79;60.37;100318.32;1758419;81;21562;-72
2022/07/17 09:28:22;;;;;;;3.52;2.80;;;;;;;21.87;60.04;100312.80;1733702;81;21039;-72
2022/07/17 09:30:52;;;;;;;3.22;2.33;;;;;;;22.02;59.67;100304.63;1764285;79;21148;-73
2022/07/17 09:33:26;;;;;;;4.03;2.58;;;;;;;22.28;59.59;100308.82;1797297;79;21008;-73
2022/07/17 09:35:57;;;;;;;3.08;2.47;;;;;;;22.48;58.03;100305.39;1797457;79;21902;-71
2022/07/17 09:38:31;;;;;;;2.80;2.10;;;;;;;22.50;56.84;100300.66;1781776;79;21099;-73
2022/07/17 09:41:17;;;;;;;3.45;2.40;;;;;;;22.41;57.47;100293.27;1726117;81;21039;-73
2022/07/17 09:43:52;;;;;;;3.58;2.10;;;;;;;22.40;57.26;100290.27;1781138;79;21543;-73
2022/07/17 09:46:28;;;;;;;2.00;1.70;;;;;;;22.36;57.51;100295.72;1757581;81;21582;-72
2022/07/17 09:49:00;;;;;;;2.55;1.67;;;;;;;22.39;57.37;100283.72;1757398;81;21547;-73
2022/07/17 09:51:39;;;;;;;3.22;1.90;;;;;;;22.53;56.68;100288.13;1781734;78;21466;-72
2022/07/17 09:54:07;;;;;;;2.62;1.70;;;;;;;22.75;57.08;100284.78;1757432;81;21075;-73
2022/07/17 09:56:36;;;;;;;2.65;1.62;;;;;;;22.96;55.41;100289.20;1757894;81;21010;-73
2022/07/17 09:59:05;;;;;;;3.25;1.90;;;;;;;23.05;55.52;100289.32;1723881;81;21086;-72
2022/07/17 10:01:33;;;;;;;4.58;1.77;;;;;;;23.12;54.13;100283.43;1788451;79;21820;-72
2022/07/17 10:03:59;;;;;;;2.37;1.60;;;;;;;23.10;53.82;100286.85;1795117;79;21042;-72
2022/07/17 10:06:26;;;;;;;3.22;1.60;;;;;;;23.10;53.52;100289.55;1772861;79;21066;-72
2022/07/17 10:08:55;;;;;;;2.98;1.70;;;;;;;23.07;53.79;100289.97;1757547;81;21066;-72
2022/07/17 10:11:27;;;;;;;3.52;1.70;;;;;;;23.04;54.03;100283.63;1758243;80;21047;-73
2022/07/17 10:14:03;;;;;;;4.22;1.70;;;;;;;22.98;53.45;100281.25;1775833;80;21086;-74
2022/07/17 10:16:31;;;;;;;2.75;1.40;;;;;;;22.96;53.08;100278.42;1757073;80;21063;-72
2022/07/17 10:19:00;;;;;;;3.52;1.80;;;;;;;22.88;53.47;100269.22;1756541;81;21023;-71
2022/07/17 10:21:29;;;;;;;5.17;1.90;;;;;;;22.70;53.43;100268.41;1757002;80;21207;-73
2022/07/17 10:24:01;;;;;;;2.12;1.70;;;;;;;22.52;54.04;100268.47;1756867;81;21137;-73
2022/07/17 10:26:43;;;;;;;4.37;1.97;;;;;;;22.39;54.11;100275.64;1757904;81;22522;-72
2022/07/17 10:29:37;;;;;;;6.70;2.15;;;;;;;22.28;55.27;100300.75;1757800;81;21651;-72
2022/07/17 10:32:20;;;;;;;4.85;2.10;;;;;;;21.93;58.57;100324.64;1757901;80;21031;-69
2022/07/17 10:35:05;;;;;;;7.00;1.50;;;;;;;21.30;61.74;100388.19;1756996;81;21027;-72
2022/07/17 10:37:40;;;;;;;5.37;1.50;;;;;;;19.89;65.60;100368.25;1750400;81;21230;-71
2022/07/17 10:40:28;;;;;;;2.75;1.80;;;;;;;18.96;67.32;100369.25;1756744;81;21933;-71
2022/07/17 10:43:02;;;;;;;10.40;2.70;;;;;;;18.55;68.91;100369.94;1757021;80;21103;-72
2022/07/17 10:45:42;;;;;;;5.87;2.37;;;;;;;18.31;70.44;100362.81;1756677;81;21054;-71
2022/07/17 10:48:12;;;;;;;7.60;2.52;;;;;;;18.29;72.08;100360.83;1786906;80;21115;-71
2022/07/17 10:50:45;;;;;;;5.15;2.65;;;;;;;18.39;73.18;100349.93;1771628;79;21087;-71
2022/07/17 10:53:26;;;;;;;5.15;2.40;;;;;;;18.67;75.19;100341.81;1738243;81;22347;-72
2022/07/17 10:56:05;;;;;;;2.15;1.52;;;;;;;19.07;76.68;100328.69;1726329;81;21067;-73
2022/07/17 10:58:41;;;;;;;11.63;1.90;;;;;;;19.52;76.66;100324.34;1667143;84;21103;-72
2022/07/17 11:01:13;;;;;;;6.42;1.62;;;;;;;19.78;75.34;100314.55;1726396;83;21047;-72
2022/07/17 11:03:45;;;;;;;2.35;1.60;;;;;;;20.05;74.73;100309.08;1711811;83;22155;-72
2022/07/17 11:06:24;;;;;;;1.95;1.32;;;;;;;20.35;73.86;100301.84;1732981;81;22625;-72
2022/07/17 11:09:02;;;;;;;2.20;1.20;;;;;;;20.67;73.07;100299.81;1749956;81;21008;-72
2022/07/17 11:11:50;;;;;;;3.00;1.30;;;;;;;21.07;72.29;100299.20;1705121;81;21067;-71
2022/07/17 11:14:24;;;;;;;3.83;1.47;;;;;;;21.44;70.99;100306.70;1697943;83;21080;-73
2022/07/17 11:16:59;;;;;;;2.90;1.40;;;;;;;21.85;69.70;100313.52;1770467;79;21323;-73
2022/07/17 11:19:33;;;;;;;2.87;1.10;;;;;;;22.19;67.20;100313.22;1784836;79;21872;-72
2022/07/17 11:22:02;;;;;;;1.95;1.17;;;;;;;22.52;66.91;100322.81;1755290;79;21078;-72
2022/07/17 11:24:47;;;;;;;1.57;1.10;;;;;;;22.81;64.69;100316.29;1723398;81;22054;-72
2022/07/17 11:27:27;;;;;;;2.50;1.35;;;;;;;23.02;62.07;100312.64;1748127;81;21437;-73
2022/07/17 11:29:56;;;;;;;1.98;1.30;;;;;;;23.05;58.69;100313.56;1756992;80;21536;-72